createdAt,value
2023-06-07T00:04:33.340Z,100658.06
2023-06-07T00:09:35.687Z,100652.06
2023-06-07T00:14:38.510Z,100656.13
2023-06-07T00:19:41.068Z,100658.16
2023-06-07T00:24:43.438Z,100642.78
2023-06-07T00:29:46.052Z,100653.66
2023-06-07T00:34:48.392Z,100650.00
2023-06-07T00:39:50.748Z,100644.88
2023-06-07T00:44:53.076Z,100649.47
2023-06-07T00:49:55.784Z,100649.03
2023-06-07T00:54:59.902Z,100650.88
2023-06-07T01:00:04.322Z,100639.84
2023-06-07T01:05:08.276Z,100640.09
2023-06-07T01:10:10.884Z,100629.59
2023-06-07T01:15:14.624Z,100620.69
2023-06-07T01:20:24.259Z,100630.16
2023-06-07T01:25:27.114Z,100626.22
2023-06-07T01:30:33.258Z,100621.75
2023-06-07T01:35:36.314Z,100642.16
2023-06-07T01:40:39.740Z,100641.84
2023-06-07T01:45:43.266Z,100647.38
2023-06-07T01:50:45.745Z,100642.56
2023-06-07T01:55:57.968Z,100646.56
2023-06-07T02:01:18.303Z,100643.34
2023-06-07T02:06:32.229Z,100638.72
2023-06-07T02:11:36.043Z,100642.59
2023-06-07T02:16:38.514Z,100646.38
2023-06-07T02:21:40.866Z,100633.78
2023-06-07T02:26:44.027Z,100646.22
2023-06-07T02:31:49.032Z,100642.09
2023-06-07T02:36:51.304Z,100637.66
2023-06-07T02:41:53.548Z,100640.13
2023-06-07T02:46:55.791Z,100637.91
2023-06-07T02:51:58.167Z,100656.19
2023-06-07T02:57:00.451Z,100639.00
2023-06-07T03:02:02.778Z,100650.50
2023-06-07T03:07:05.280Z,100652.34
2023-06-07T03:12:08.457Z,100671.84
2023-06-07T03:17:10.947Z,100656.91
2023-06-07T03:22:13.281Z,100661.69
2023-06-07T03:27:15.680Z,100657.06
2023-06-07T03:32:18.072Z,100665.84
2023-06-07T03:37:20.466Z,100663.50
2023-06-07T03:42:22.787Z,100652.41
2023-06-07T03:47:25.230Z,100660.94
2023-06-07T03:52:27.632Z,100645.16
2023-06-07T03:57:29.961Z,100656.28
2023-06-07T04:02:32.291Z,100650.03
2023-06-07T04:07:34.745Z,100648.44
2023-06-07T04:12:37.044Z,100654.88
2023-06-07T04:17:39.270Z,100651.63
2023-06-07T04:22:41.499Z,100654.47
2023-06-07T04:27:47.887Z,100676.91
2023-06-07T04:32:50.784Z,100667.78
2023-06-07T04:37:53.241Z,100686.63
2023-06-07T04:43:19.872Z,100679.03
2023-06-07T04:48:27.642Z,100663.75
2023-06-07T04:53:30.315Z,100662.28
2023-06-07T04:58:35.440Z,100668.59
2023-06-07T05:03:42.970Z,100667.94
2023-06-07T05:08:45.545Z,100663.25
2023-06-07T05:13:50.778Z,100668.13
2023-06-07T05:18:54.691Z,100681.97
2023-06-07T05:23:57.009Z,100675.41
2023-06-07T05:28:59.258Z,100672.25
2023-06-07T05:34:01.494Z,100675.38
2023-06-07T05:39:04.560Z,100669.41
2023-06-07T05:44:06.993Z,100663.88
2023-06-07T05:49:09.525Z,100689.44
2023-06-07T05:54:11.936Z,100662.84
2023-06-07T05:59:14.215Z,100672.75
2023-06-07T06:04:18.350Z,100673.97
2023-06-07T06:09:21.296Z,100679.91
2023-06-07T06:14:24.305Z,100665.75
2023-06-07T06:19:26.905Z,100684.28
2023-06-07T06:24:29.158Z,100675.84
2023-06-07T06:29:32.249Z,100678.63
2023-06-07T06:34:34.482Z,100655.38
2023-06-07T06:39:36.796Z,100658.47
2023-06-07T06:44:39.033Z,100669.00
2023-06-07T06:49:41.809Z,100680.53
2023-06-07T06:54:44.111Z,100668.97
2023-06-07T06:59:47.625Z,100663.13
2023-06-07T07:04:52.512Z,100652.56
2023-06-07T07:09:55.468Z,100663.59
2023-06-07T07:14:57.745Z,100659.34
2023-06-07T07:20:00.055Z,100668.69
2023-06-07T07:25:02.387Z,100658.28
2023-06-07T07:30:07.850Z,100648.50
2023-06-07T07:35:10.269Z,100659.25
2023-06-07T07:40:14.282Z,100655.16
2023-06-07T07:45:16.755Z,100657.13
2023-06-07T07:50:19.003Z,100651.09
2023-06-07T07:55:21.303Z,100643.66
2023-06-07T08:00:25.353Z,100634.84
2023-06-07T08:05:27.877Z,100635.09
2023-06-07T08:10:30.276Z,100630.97
2023-06-07T08:15:33.614Z,100638.88
2023-06-07T08:20:37.371Z,100625.84
2023-06-07T08:25:39.669Z,100611.00
2023-06-07T08:30:43.393Z,100615.88
2023-06-07T08:35:45.608Z,100615.19
2023-06-07T08:40:47.883Z,100623.84
2023-06-07T08:45:51.793Z,100618.47
2023-06-07T08:50:57.036Z,100611.19
2023-06-07T08:56:00.049Z,100591.69
2023-06-07T09:01:02.929Z,100606.53
2023-06-07T09:06:05.220Z,100596.19
2023-06-07T09:11:07.486Z,100592.03
2023-06-07T09:16:12.941Z,100582.59
2023-06-07T09:21:27.901Z,100586.03
2023-06-07T09:26:40.825Z,100580.09
2023-06-07T09:31:43.179Z,100574.06
2023-06-07T09:36:59.516Z,100568.91
2023-06-07T09:42:01.976Z,100562.22
2023-06-07T09:47:05.201Z,100556.66
2023-06-07T09:52:15.321Z,100537.66
2023-06-07T09:57:27.304Z,100540.25
2023-06-07T10:02:31.158Z,100540.25
2023-06-07T10:07:44.241Z,100519.66
2023-06-07T10:12:49.977Z,100522.88
2023-06-07T10:18:12.391Z,100521.66
2023-06-07T10:23:22.786Z,100511.56
2023-06-07T10:28:47.837Z,100503.16
2023-06-07T10:33:52.571Z,100505.50
2023-06-07T10:38:56.464Z,100516.13
2023-06-07T10:44:03.388Z,100506.38
2023-06-07T10:49:05.856Z,100506.63
2023-06-07T10:54:09.280Z,100490.19
2023-06-07T10:59:14.462Z,100498.88
2023-06-07T11:04:41.542Z,100490.25
2023-06-07T11:09:44.053Z,100477.09
2023-06-07T11:15:29.614Z,100489.69
2023-06-07T11:20:40.744Z,100471.97
2023-06-07T11:25:42.999Z,100470.53
2023-06-07T11:30:45.579Z,100469.53
2023-06-07T11:35:48.342Z,100455.84
2023-06-07T11:40:51.108Z,100456.63
2023-06-07T11:45:57.766Z,100447.66
2023-06-07T11:51:01.858Z,100432.63
2023-06-07T11:56:04.359Z,100426.88
2023-06-07T12:01:07.256Z,100422.78
2023-06-07T12:06:09.563Z,100422.69
2023-06-07T12:11:11.858Z,100424.88
2023-06-07T12:16:14.478Z,100423.38
2023-06-07T12:21:17.710Z,100421.84
2023-06-07T12:26:27.231Z,100414.19
2023-06-07T12:31:30.739Z,100407.41
2023-06-07T12:36:38.206Z,100407.63
2023-06-07T12:41:41.820Z,100388.84
2023-06-07T12:46:44.217Z,100402.28
2023-06-07T12:51:46.981Z,100401.41
2023-06-07T12:56:49.195Z,100393.13
2023-06-07T13:01:51.730Z,100392.91
2023-06-07T13:06:54.076Z,100381.00
2023-06-07T13:11:56.561Z,100369.44
2023-06-07T13:16:58.895Z,100375.75
2023-06-07T13:22:01.958Z,100362.31
2023-06-07T13:27:11.631Z,100365.09
2023-06-07T13:32:13.964Z,100358.84
2023-06-07T13:37:16.365Z,100370.09
2023-06-07T13:42:22.961Z,100346.69
2023-06-07T13:47:29.801Z,100342.63
2023-06-07T13:52:34.444Z,100355.38
2023-06-07T13:57:38.630Z,100346.91
2023-06-07T14:02:43.181Z,100346.34
2023-06-07T14:07:45.761Z,100340.44
2023-06-07T14:12:48.059Z,100335.44
2023-06-07T14:17:50.540Z,100347.88
2023-06-07T14:22:53.160Z,100353.09
2023-06-07T14:27:57.708Z,100349.28
2023-06-07T14:32:59.988Z,100328.34
2023-06-07T14:38:02.261Z,100321.19
2023-06-07T14:43:04.593Z,100338.50
2023-06-07T14:48:07.160Z,100318.78
2023-06-07T14:53:09.855Z,100337.56
2023-06-07T14:58:12.212Z,100315.41
2023-06-07T15:03:14.518Z,100323.88
2023-06-07T15:08:17.019Z,100321.53
2023-06-07T15:13:20.291Z,100316.47
2023-06-07T15:18:22.557Z,100328.03
2023-06-07T15:23:25.002Z,100318.63
2023-06-07T15:28:28.221Z,100329.63
2023-06-07T15:33:30.638Z,100311.09
2023-06-07T15:38:38.798Z,100321.09
2023-06-07T15:43:44.702Z,100304.31
2023-06-07T15:48:51.835Z,100311.47
2023-06-07T15:53:54.153Z,100311.16
2023-06-07T15:58:56.397Z,100313.88
2023-06-07T16:03:58.853Z,100317.00
2023-06-07T16:09:09.491Z,100312.09
2023-06-07T16:14:12.726Z,100315.09
2023-06-07T16:19:14.982Z,100315.47
2023-06-07T16:24:17.450Z,100305.53
2023-06-07T16:29:19.793Z,100324.41
2023-06-07T16:34:22.032Z,100321.00
2023-06-07T16:39:24.296Z,100324.56
2023-06-07T16:44:26.553Z,100323.19
2023-06-07T16:49:28.872Z,100333.91
2023-06-07T16:54:31.292Z,100329.91
2023-06-07T16:59:36.310Z,100335.75
2023-06-07T17:04:38.868Z,100340.88
2023-06-07T17:09:41.174Z,100335.19
2023-06-07T17:14:46.135Z,100327.00
2023-06-07T17:19:50.796Z,100326.66
2023-06-07T17:24:53.089Z,100330.44
2023-06-07T17:29:55.386Z,100340.34
2023-06-07T17:34:57.659Z,100343.94
2023-06-07T17:39:59.891Z,100341.81
2023-06-07T17:45:05.257Z,100349.75
2023-06-07T17:50:09.823Z,100369.78
2023-06-07T17:55:12.435Z,100353.59
2023-06-07T18:00:15.928Z,100359.56
2023-06-07T18:05:18.197Z,100360.88
2023-06-07T18:10:21.032Z,100366.78
2023-06-07T18:15:23.410Z,100367.97
2023-06-07T18:20:25.563Z,100373.94
2023-06-07T18:25:27.798Z,100379.34
2023-06-07T18:30:30.074Z,100388.50
2023-06-07T18:35:32.775Z,100385.09
2023-06-07T18:40:34.980Z,100401.72
2023-06-07T18:45:37.306Z,100404.34
2023-06-07T18:50:39.619Z,100409.75
2023-06-07T18:55:41.839Z,100407.06
2023-06-07T19:00:44.244Z,100404.41
2023-06-07T19:05:46.585Z,100421.19
2023-06-07T19:10:48.892Z,100418.00
2023-06-07T19:15:51.960Z,100414.78
2023-06-07T19:20:54.227Z,100434.59
2023-06-07T19:25:56.541Z,100442.28
2023-06-07T19:30:59.001Z,100439.66
2023-06-07T19:36:01.446Z,100432.03
2023-06-07T19:41:03.673Z,100436.53
2023-06-07T19:46:05.992Z,100447.81
2023-06-07T19:51:08.873Z,100448.69
2023-06-07T19:56:11.251Z,100443.00
2023-06-07T20:01:13.479Z,100437.53
2023-06-07T20:06:15.788Z,100444.44
2023-06-07T20:11:20.517Z,100425.91
2023-06-07T20:16:23.069Z,100452.53
2023-06-07T20:21:28.076Z,100432.56
2023-06-07T20:26:30.392Z,100432.84
2023-06-07T20:31:32.958Z,100429.09
2023-06-07T20:36:35.252Z,100425.28
2023-06-07T20:41:37.688Z,100430.25
2023-06-07T20:46:39.933Z,100428.34
2023-06-07T20:51:42.181Z,100433.84
2023-06-07T20:56:44.449Z,100433.56
2023-06-07T21:01:46.807Z,100428.16
2023-06-07T21:06:49.140Z,100446.81
2023-06-07T21:11:51.451Z,100448.25
2023-06-07T21:16:53.724Z,100441.28
2023-06-07T21:21:55.996Z,100445.38
2023-06-07T21:26:58.190Z,100442.47
2023-06-07T21:32:00.569Z,100444.16
2023-06-07T21:37:02.981Z,100431.63
2023-06-07T21:42:06.025Z,100436.22
2023-06-07T21:47:08.264Z,100445.28
2023-06-07T21:52:10.533Z,100445.59
2023-06-07T21:57:13.017Z,100453.75
2023-06-07T22:02:15.518Z,100452.97
2023-06-07T22:07:18.361Z,100440.06
2023-06-07T22:12:21.840Z,100424.22
2023-06-07T22:17:25.856Z,100447.22
2023-06-07T22:22:28.671Z,100448.31
2023-06-07T22:27:31.823Z,100434.09
2023-06-07T22:32:34.260Z,100445.81
2023-06-07T22:37:40.540Z,100431.31
2023-06-07T22:42:42.890Z,100426.38
2023-06-07T22:47:47.953Z,100440.91
2023-06-07T22:52:50.383Z,100442.81
2023-06-07T22:57:52.916Z,100446.16
2023-06-07T23:02:55.826Z,100435.16
2023-06-07T23:07:58.747Z,100445.88
2023-06-07T23:13:04.642Z,100436.59
2023-06-07T23:18:06.933Z,100420.97
2023-06-07T23:23:11.345Z,100430.56
2023-06-07T23:28:13.951Z,100407.59
2023-06-07T23:33:16.382Z,100427.03
2023-06-07T23:38:18.770Z,100415.00
2023-06-07T23:43:21.080Z,100400.44
2023-06-07T23:48:26.478Z,100412.50
2023-06-07T23:53:28.808Z,100419.34
2023-06-07T23:58:31.376Z,100394.16
